Iron Chieftain — VNVD — position and weather

sailwx.info

Track history (hours):
 
Tides and Currents Weather Stations Pressure Air Temp Water Temp Dewpoint Dewpoint Depression Visibility Wind Speed Wind Dir Waves Ship Positions

Iron Chieftain

Last reported at 2018-Feb-14 18:14 UTC. Time now 2018-Feb-25 23:52 UTC.
Position S 23°54' E 151°37'.
Warning: this ship's position is 11 days out of date.

Length 202 m; beam 32 m.

Type: Cargo ship. MMSI: 503000069.

Date/timePositionNaut miles runAvg speedWind from/ knotsBaromVisibWave heightAir tempDewpointWater temp
2018-Feb-14 18:14S 23°54' E 151°37'0 0.0
2018-Feb-12 14:56S 23°54' E 151°37'9 1.0
2018-Feb-12 06:04S 23°54' E 151°47'111.2
2018-Feb-12 06:00S 23°55' E 151°47'1511.8
2018-Feb-12 04:42S 23°57' E 152°04'411.9
2018-Feb-12 04:23S 23°57' E 152°08'411.6
2018-Feb-12 04:00S 23°58' E 152°13'1211.6
2018-Feb-12 03:00S 23°60' E 152°26'511.2
2018-Feb-12 02:30S 24°01' E 152°31'611.3
2018-Feb-12 01:59S 24°02' E 152°38'610.9
2018-Feb-12 01:26S 24°03' E 152°44'510.9
2018-Feb-12 01:00S 24°05' E 152°49'611.0
2018-Feb-12 00:30S 24°07' E 152°55'5 9.9
2018-Feb-12 00:00S 24°06' E 153°00'6110.0 310 / 151009.5 5.4 29.124.728.0
2018-Feb-11 17:53S 25°00' E 153°32'6611.2
2018-Feb-11 12:00S 26°06' E 153°30'4411.5 130 / 231009.1 5.4 27.120.827.0
2018-Feb-11 08:09S 26°50' E 153°37'2 9.9
2018-Feb-11 07:58S 26°52' E 153°37'4 9.9
2018-Feb-11 07:30S 26°56' E 153°38'5 9.6
2018-Feb-11 07:00S 27°01' E 153°38'5 9.4
2018-Feb-11 06:30S 27°06' E 153°38'5 9.4
2018-Feb-11 06:00S 27°10' E 153°38'5 9.4
2018-Feb-11 05:30S 27°15' E 153°39'5 9.3
2018-Feb-11 05:00S 27°20' E 153°39'5 9.4
2018-Feb-11 04:30S 27°24' E 153°39'5 9.2
2018-Feb-11 04:00S 27°29' E 153°39'4 8.9
2018-Feb-11 03:30S 27°33' E 153°40'5 9.1
2018-Feb-11 03:00S 27°38' E 153°40'5 9.1
2018-Feb-11 02:30S 27°43' E 153°40'5 9.2
2018-Feb-11 02:00S 27°47' E 153°40'5 9.3
2018-Feb-11 01:30S 27°52' E 153°40'5 9.5
2018-Feb-11 01:00S 27°57' E 153°41'5 9.9
2018-Feb-11 00:30S 28°01' E 153°41'510.1
2018-Feb-11 00:00S 28°06' E 153°41'5319.2
2018-Feb-11 00:00S 28°06' E 153°36'814.8 320 / 171007.210.8 27.723.127.0
2018-Feb-10 23:29S 28°12' E 153°42'5 9.8
2018-Feb-10 23:00S 28°16' E 153°42'5 9.8
2018-Feb-10 22:30S 28°21' E 153°42'5 9.7
2018-Feb-10 22:00S 28°26' E 153°42'5 9.4
2018-Feb-10 21:30S 28°31' E 153°43'5 9.3
2018-Feb-10 21:00S 28°35' E 153°43'5 9.4
2018-Feb-10 20:30S 28°40' E 153°43'5 9.5
2018-Feb-10 19:59S 28°45' E 153°42'5 9.7
2018-Feb-10 19:30S 28°50' E 153°41'5 9.7
2018-Feb-10 19:00S 28°54' E 153°40'7 9.7
2018-Feb-10 18:19S 29°01' E 153°40'4 9.9
2018-Feb-10 17:56S 29°05' E 153°40'510.2
2018-Feb-10 17:25S 29°10' E 153°39'52 9.5
2018-Feb-10 12:00S 30°00' E 153°24'99 8.3 340 / 181009.1 5.4 24.921.327.0
2018-Feb-10 00:00S 31°36' E 152°54'14711.8 270 / 61011.810.8 27.221.624.0
2018-Feb-09 11:30S 33°49' E 151°39'12911.2
2018-Feb-09 00:00S 35°42' E 150°24'11610.6 140 / 111015.8 2.2 23.021.623.0
2018-Feb-08 13:00S 37°37' E 150°04'9 9.2
2018-Feb-08 12:00S 37°42' E 149°54'816.4 240 / 171016.2 5.4 19.919.322.0
2018-Feb-08 11:30S 37°50' E 149°51'12012.0
2018-Feb-08 01:30S 38°56' E 147°43'712.8
2018-Feb-08 00:59S 38°58' E 147°35'713.0
2018-Feb-08 00:26S 39°00' E 147°27'3512.8
2018-Feb-07 21:41S 39°14' E 146°45'313.0
2018-Feb-07 21:25S 39°15' E 146°41'11512.3
2018-Feb-07 12:00S 39°06' E 144°12'2811.3 060 / 121014.1 5.4 20.619.822.0
2018-Feb-07 09:30S 39°04' E 143°36'611.3
2018-Feb-07 09:00S 39°04' E 143°28'511.0
2018-Feb-07 08:30S 39°02' E 143°22'511.0
2018-Feb-07 08:00S 39°01' E 143°15'611.3
2018-Feb-07 07:30S 38°59' E 143°08'611.3
2018-Feb-07 07:00S 38°57' E 143°01'611.2
2018-Feb-07 06:30S 38°55' E 142°54'611.3
2018-Feb-07 05:59S 38°53' E 142°47'611.4
2018-Feb-07 05:30S 38°51' E 142°41'611.5
2018-Feb-07 05:00S 38°49' E 142°34'611.5
2018-Feb-07 04:30S 38°48' E 142°27'611.5
2018-Feb-07 04:00S 38°46' E 142°20'2011.7
2018-Feb-07 02:18S 38°39' E 141°55'311.9
2018-Feb-07 02:00S 38°38' E 141°51'611.9
2018-Feb-07 01:30S 38°36' E 141°44'2415.7
2018-Feb-07 00:00S 38°24' E 141°18'3 4.5 070 / 101015.5 5.4 20.717.820.0
2018-Feb-06 23:15S 38°25' E 141°14'311.4
2018-Feb-06 23:00S 38°24' E 141°11'1511.5
2018-Feb-06 21:40S 38°18' E 140°53'11611.9
2018-Feb-06 12:00S 36°54' E 139°12'13211.0 140 / 16
2018-Feb-06 00:00S 35°24' E 137°12'20 9.3 100 / 141017.510.8 22.517.022.0
2018-Feb-05 21:49S 35°25' E 136°47'411.5
2018-Feb-05 21:30S 35°23' E 136°44'11211.7
2018-Feb-05 12:00S 33°36' E 137°24'   140 / 171015.710.8 25.522.124.0
Track history (hours):
 
Tides and Currents Weather Stations Pressure Air Temp Water Temp Dewpoint Dewpoint Depression Visibility Wind Speed Wind Dir Waves Ship Positions

Iron Chieftain

Last reported at 2018-Feb-14 18:14 UTC. Time now 2018-Feb-25 23:52 UTC.
Position S 23°54' E 151°37'.
Warning: this ship's position is 11 days out of date.

Length 202 m; beam 32 m.

Type: Cargo ship. MMSI: 503000069.

Date/timePositionNaut miles runAvg speedWind from/ knotsBaromVisibWave heightAir tempDewpointWater temp
2018-Feb-14 18:14S 23°54' E 151°37'0 0.0
2018-Feb-12 14:56S 23°54' E 151°37'9 1.0
2018-Feb-12 06:04S 23°54' E 151°47'111.2
2018-Feb-12 06:00S 23°55' E 151°47'1511.8
2018-Feb-12 04:42S 23°57' E 152°04'411.9
2018-Feb-12 04:23S 23°57' E 152°08'411.6
2018-Feb-12 04:00S 23°58' E 152°13'1211.6
2018-Feb-12 03:00S 23°60' E 152°26'511.2
2018-Feb-12 02:30S 24°01' E 152°31'611.3
2018-Feb-12 01:59S 24°02' E 152°38'610.9
2018-Feb-12 01:26S 24°03' E 152°44'510.9
2018-Feb-12 01:00S 24°05' E 152°49'611.0
2018-Feb-12 00:30S 24°07' E 152°55'5 9.9
2018-Feb-12 00:00S 24°06' E 153°00'6110.0 310 / 151009.5 5.4 29.124.728.0
2018-Feb-11 17:53S 25°00' E 153°32'6611.2
2018-Feb-11 12:00S 26°06' E 153°30'4411.5 130 / 231009.1 5.4 27.120.827.0
2018-Feb-11 08:09S 26°50' E 153°37'2 9.9
2018-Feb-11 07:58S 26°52' E 153°37'4 9.9
2018-Feb-11 07:30S 26°56' E 153°38'5 9.6
2018-Feb-11 07:00S 27°01' E 153°38'5 9.4
2018-Feb-11 06:30S 27°06' E 153°38'5 9.4
2018-Feb-11 06:00S 27°10' E 153°38'5 9.4
2018-Feb-11 05:30S 27°15' E 153°39'5 9.3
2018-Feb-11 05:00S 27°20' E 153°39'5 9.4
2018-Feb-11 04:30S 27°24' E 153°39'5 9.2
2018-Feb-11 04:00S 27°29' E 153°39'4 8.9
2018-Feb-11 03:30S 27°33' E 153°40'5 9.1
2018-Feb-11 03:00S 27°38' E 153°40'5 9.1
2018-Feb-11 02:30S 27°43' E 153°40'5 9.2
2018-Feb-11 02:00S 27°47' E 153°40'5 9.3
2018-Feb-11 01:30S 27°52' E 153°40'5 9.5
2018-Feb-11 01:00S 27°57' E 153°41'5 9.9
2018-Feb-11 00:30S 28°01' E 153°41'510.1
2018-Feb-11 00:00S 28°06' E 153°41'5319.2
2018-Feb-11 00:00S 28°06' E 153°36'814.8 320 / 171007.210.8 27.723.127.0
2018-Feb-10 23:29S 28°12' E 153°42'5 9.8
2018-Feb-10 23:00S 28°16' E 153°42'5 9.8
2018-Feb-10 22:30S 28°21' E 153°42'5 9.7
2018-Feb-10 22:00S 28°26' E 153°42'5 9.4
2018-Feb-10 21:30S 28°31' E 153°43'5 9.3
2018-Feb-10 21:00S 28°35' E 153°43'5 9.4
2018-Feb-10 20:30S 28°40' E 153°43'5 9.5
2018-Feb-10 19:59S 28°45' E 153°42'5 9.7
2018-Feb-10 19:30S 28°50' E 153°41'5 9.7
2018-Feb-10 19:00S 28°54' E 153°40'7 9.7
2018-Feb-10 18:19S 29°01' E 153°40'4 9.9
2018-Feb-10 17:56S 29°05' E 153°40'510.2
2018-Feb-10 17:25S 29°10' E 153°39'52 9.5
2018-Feb-10 12:00S 30°00' E 153°24'99 8.3 340 / 181009.1 5.4 24.921.327.0
2018-Feb-10 00:00S 31°36' E 152°54'14711.8 270 / 61011.810.8 27.221.624.0
2018-Feb-09 11:30S 33°49' E 151°39'12911.2
2018-Feb-09 00:00S 35°42' E 150°24'11610.6 140 / 111015.8 2.2 23.021.623.0
2018-Feb-08 13:00S 37°37' E 150°04'9 9.2
2018-Feb-08 12:00S 37°42' E 149°54'816.4 240 / 171016.2 5.4 19.919.322.0
2018-Feb-08 11:30S 37°50' E 149°51'12012.0
2018-Feb-08 01:30S 38°56' E 147°43'712.8
2018-Feb-08 00:59S 38°58' E 147°35'713.0
2018-Feb-08 00:26S 39°00' E 147°27'3512.8
2018-Feb-07 21:41S 39°14' E 146°45'313.0
2018-Feb-07 21:25S 39°15' E 146°41'11512.3
2018-Feb-07 12:00S 39°06' E 144°12'2811.3 060 / 121014.1 5.4 20.619.822.0
2018-Feb-07 09:30S 39°04' E 143°36'611.3
2018-Feb-07 09:00S 39°04' E 143°28'511.0
2018-Feb-07 08:30S 39°02' E 143°22'511.0
2018-Feb-07 08:00S 39°01' E 143°15'611.3
2018-Feb-07 07:30S 38°59' E 143°08'611.3
2018-Feb-07 07:00S 38°57' E 143°01'611.2
2018-Feb-07 06:30S 38°55' E 142°54'611.3
2018-Feb-07 05:59S 38°53' E 142°47'611.4
2018-Feb-07 05:30S 38°51' E 142°41'611.5
2018-Feb-07 05:00S 38°49' E 142°34'611.5
2018-Feb-07 04:30S 38°48' E 142°27'611.5
2018-Feb-07 04:00S 38°46' E 142°20'2011.7
2018-Feb-07 02:18S 38°39' E 141°55'311.9
2018-Feb-07 02:00S 38°38' E 141°51'611.9
2018-Feb-07 01:30S 38°36' E 141°44'2415.7
2018-Feb-07 00:00S 38°24' E 141°18'3 4.5 070 / 101015.5 5.4 20.717.820.0
2018-Feb-06 23:15S 38°25' E 141°14'311.4
2018-Feb-06 23:00S 38°24' E 141°11'1511.5
2018-Feb-06 21:40S 38°18' E 140°53'11611.9
2018-Feb-06 12:00S 36°54' E 139°12'13211.0 140 / 16
2018-Feb-06 00:00S 35°24' E 137°12'20 9.3 100 / 141017.510.8 22.517.022.0
2018-Feb-05 21:49S 35°25' E 136°47'411.5
2018-Feb-05 21:30S 35°23' E 136°44'11211.7
2018-Feb-05 12:00S 33°36' E 137°24'   140 / 171015.710.8 25.522.124.0

Dump ship's entire track history